createdAt,value
2023-01-07T00:02:09.117Z,1.85
2023-01-07T00:04:40.769Z,2.10
2023-01-07T00:07:12.485Z,1.92
2023-01-07T00:09:46.449Z,2.00
2023-01-07T00:12:18.122Z,2.33
2023-01-07T00:14:49.808Z,1.98
2023-01-07T00:17:21.476Z,2.20
2023-01-07T00:19:53.155Z,2.10
2023-01-07T00:22:24.829Z,2.42
2023-01-07T00:24:57.517Z,1.98
2023-01-07T00:27:29.264Z,2.28
2023-01-07T00:30:00.958Z,1.90
2023-01-07T00:32:59.725Z,2.10
2023-01-07T00:35:32.681Z,2.17
2023-01-07T00:38:05.423Z,2.20
2023-01-07T00:40:37.608Z,2.20
2023-01-07T00:43:09.324Z,2.20
2023-01-07T00:45:41.334Z,2.03
2023-01-07T00:48:13.133Z,2.28
2023-01-07T00:50:49.530Z,2.17
2023-01-07T00:53:21.534Z,2.45
2023-01-07T00:55:53.365Z,2.13
2023-01-07T00:58:26.329Z,2.30
2023-01-07T01:01:00.531Z,2.30
2023-01-07T01:03:33.845Z,2.30
2023-01-07T01:06:14.349Z,2.40
2023-01-07T01:08:47.348Z,2.40
2023-01-07T01:11:19.091Z,2.20
2023-01-07T01:13:50.997Z,2.50
2023-01-07T01:16:22.996Z,2.67
2023-01-07T01:18:54.765Z,2.65
2023-01-07T01:21:26.511Z,2.90
2023-01-07T01:23:58.186Z,2.88
2023-01-07T01:26:29.884Z,3.20
2023-01-07T01:29:01.637Z,2.90
2023-01-07T01:31:35.748Z,2.72
2023-01-07T01:34:16.507Z,3.33
2023-01-07T01:36:48.266Z,2.53
2023-01-07T01:39:20.555Z,3.00
2023-01-07T01:41:52.418Z,2.80
2023-01-07T01:44:38.066Z,2.80
2023-01-07T01:47:37.811Z,3.03
2023-01-07T01:50:21.966Z,2.75
2023-01-07T01:53:12.838Z,2.67
2023-01-07T01:55:53.673Z,2.60
2023-01-07T01:58:37.455Z,2.40
2023-01-07T02:01:10.204Z,2.40
2023-01-07T02:03:42.998Z,2.33
2023-01-07T02:06:29.992Z,2.15
2023-01-07T02:09:02.003Z,2.53
2023-01-07T02:11:34.247Z,2.67
2023-01-07T02:14:24.145Z,2.83
2023-01-07T02:17:03.738Z,2.40
2023-01-07T02:20:13.773Z,2.33
2023-01-07T02:23:27.950Z,2.40
2023-01-07T02:26:13.865Z,2.45
2023-01-07T02:29:23.418Z,2.30
2023-01-07T02:32:01.163Z,2.05
2023-01-07T02:34:51.521Z,2.13
2023-01-07T02:37:55.458Z,2.13
2023-01-07T02:40:39.755Z,2.72
2023-01-07T02:43:21.599Z,2.33
2023-01-07T02:45:59.384Z,2.30
2023-01-07T02:48:34.210Z,2.30
2023-01-07T02:51:05.961Z,2.45
2023-01-07T02:53:39.881Z,2.10
2023-01-07T02:56:26.096Z,2.20
2023-01-07T02:59:11.836Z,2.28
2023-01-07T03:01:52.888Z,2.53
2023-01-07T03:04:40.486Z,1.92
2023-01-07T03:07:33.555Z,2.30
2023-01-07T03:10:32.028Z,2.85
2023-01-07T03:13:14.502Z,1.85
2023-01-07T03:16:18.018Z,2.00
2023-01-07T03:19:00.924Z,2.00
2023-01-07T03:21:36.057Z,1.90
2023-01-07T03:24:09.222Z,2.00
2023-01-07T03:26:45.823Z,2.10
2023-01-07T03:29:19.944Z,2.00
2023-01-07T03:32:04.528Z,1.92
2023-01-07T03:34:38.141Z,1.95
2023-01-07T03:37:15.039Z,1.85
2023-01-07T03:39:49.549Z,2.00
2023-01-07T03:42:42.385Z,2.30
2023-01-07T03:45:28.293Z,1.95
2023-01-07T03:48:02.939Z,2.10
2023-01-07T03:50:40.209Z,1.92
2023-01-07T03:53:12.514Z,1.90
2023-01-07T03:55:46.339Z,2.27
2023-01-07T03:58:18.314Z,1.63
2023-01-07T04:00:50.248Z,1.65
2023-01-07T04:03:24.021Z,2.38
2023-01-07T04:05:55.738Z,2.15
2023-01-07T04:08:29.122Z,2.10
2023-01-07T04:11:00.867Z,1.85
2023-01-07T04:13:32.616Z,1.83
2023-01-07T04:16:05.536Z,1.88
2023-01-07T04:18:37.297Z,2.10
2023-01-07T04:21:09.103Z,1.70
2023-01-07T04:23:40.753Z,1.73
2023-01-07T04:26:13.209Z,2.20
2023-01-07T04:28:46.149Z,1.73
2023-01-07T04:31:20.262Z,1.60
2023-01-07T04:33:51.982Z,1.65
2023-01-07T04:36:23.742Z,1.45
2023-01-07T04:38:58.154Z,1.75
2023-01-07T04:41:30.421Z,1.92
2023-01-07T04:44:02.229Z,1.70
2023-01-07T04:46:34.072Z,1.60
2023-01-07T04:49:05.871Z,1.33
2023-01-07T04:51:37.887Z,1.50
2023-01-07T04:54:10.571Z,1.75
2023-01-07T04:56:42.385Z,1.65
2023-01-07T04:59:14.350Z,1.83
2023-01-07T05:01:47.388Z,1.85
2023-01-07T05:04:19.283Z,1.40
2023-01-07T05:06:51.365Z,1.50
2023-01-07T05:09:23.516Z,1.50
2023-01-07T05:11:55.609Z,3.00
2023-01-07T05:14:27.413Z,1.60
2023-01-07T05:17:01.636Z,1.90
2023-01-07T05:19:35.435Z,1.70
2023-01-07T05:22:07.294Z,1.90
2023-01-07T05:24:43.388Z,2.20
2023-01-07T05:27:15.516Z,2.05
2023-01-07T05:29:47.190Z,1.70
2023-01-07T05:32:18.916Z,2.00
2023-01-07T05:34:50.946Z,1.80
2023-01-07T05:37:23.204Z,2.10
2023-01-07T05:39:55.397Z,2.30
2023-01-07T05:42:27.683Z,1.70
2023-01-07T05:44:59.407Z,2.00
2023-01-07T05:47:31.153Z,2.60
2023-01-07T05:50:02.859Z,1.70
2023-01-07T05:52:34.554Z,2.10
2023-01-07T05:55:07.142Z,1.83
2023-01-07T05:57:38.876Z,2.15
2023-01-07T06:00:11.723Z,2.33
2023-01-07T06:02:47.358Z,2.20
2023-01-07T06:05:19.266Z,2.25
2023-01-07T06:07:52.955Z,2.35
2023-01-07T06:10:26.639Z,2.30
2023-01-07T06:12:58.440Z,1.88
2023-01-07T06:15:30.322Z,2.10
2023-01-07T06:18:02.324Z,2.60
2023-01-07T06:20:35.297Z,2.53
2023-01-07T06:23:07.053Z,2.50
2023-01-07T06:25:38.749Z,2.60
2023-01-07T06:28:10.475Z,3.10
2023-01-07T06:30:45.026Z,2.10
2023-01-07T06:33:17.277Z,2.42
2023-01-07T06:35:48.964Z,2.67
2023-01-07T06:38:20.664Z,2.40
2023-01-07T06:40:52.352Z,2.53
2023-01-07T06:43:24.386Z,2.17
2023-01-07T06:45:56.571Z,2.42
2023-01-07T06:48:28.411Z,2.63
2023-01-07T06:51:00.134Z,2.17
2023-01-07T06:53:31.951Z,2.20
2023-01-07T06:56:05.206Z,2.58
2023-01-07T06:58:36.893Z,2.53
2023-01-07T07:01:09.235Z,2.40
2023-01-07T07:03:41.094Z,2.58
2023-01-07T07:06:12.949Z,2.90
2023-01-07T07:08:44.686Z,3.13
2023-01-07T07:11:16.612Z,3.15
2023-01-07T07:13:48.314Z,3.50
2023-01-07T07:16:22.506Z,3.08
2023-01-07T07:18:54.327Z,3.53
2023-01-07T07:21:26.018Z,3.97
2023-01-07T07:23:57.772Z,3.10
2023-01-07T07:26:29.453Z,3.40
2023-01-07T07:29:01.166Z,3.90
2023-01-07T07:31:33.388Z,3.40
2023-01-07T07:34:05.399Z,3.63
2023-01-07T07:36:37.644Z,3.30
2023-01-07T07:39:09.400Z,3.42
2023-01-07T07:41:41.285Z,3.28
2023-01-07T07:44:14.870Z,2.88
2023-01-07T07:46:46.610Z,5.03
2023-01-07T07:49:19.750Z,4.93
2023-01-07T07:51:51.484Z,3.83
2023-01-07T07:54:24.052Z,3.70
2023-01-07T07:56:58.329Z,2.97
2023-01-07T07:59:30.965Z,3.30
2023-01-07T08:02:02.813Z,4.35
2023-01-07T08:04:34.985Z,3.70
2023-01-07T08:07:07.002Z,3.00
2023-01-07T08:09:39.284Z,3.58
2023-01-07T08:12:11.006Z,4.18
2023-01-07T08:14:43.841Z,3.20
2023-01-07T08:17:15.737Z,2.95
2023-01-07T08:19:47.459Z,3.15
2023-01-07T08:22:19.107Z,2.72
2023-01-07T08:24:50.909Z,3.10
2023-01-07T08:27:22.842Z,3.20
2023-01-07T08:29:57.195Z,3.20
2023-01-07T08:32:28.841Z,3.10
2023-01-07T08:35:00.578Z,3.00
2023-01-07T08:37:32.259Z,2.65
2023-01-07T08:40:06.157Z,3.15
2023-01-07T08:42:41.070Z,3.10
2023-01-07T08:45:12.905Z,3.00
2023-01-07T08:47:47.688Z,3.70
2023-01-07T08:50:20.279Z,4.13
2023-01-07T08:52:52.095Z,4.57
2023-01-07T08:55:24.261Z,4.53
2023-01-07T08:57:55.967Z,3.70
2023-01-07T09:00:27.926Z,5.53
2023-01-07T09:02:59.703Z,3.75
2023-01-07T09:05:32.588Z,4.13
2023-01-07T09:08:05.350Z,4.70
2023-01-07T09:10:38.253Z,4.40
2023-01-07T09:13:09.975Z,4.25
2023-01-07T09:15:41.775Z,4.55
2023-01-07T09:18:13.500Z,4.18
2023-01-07T09:20:45.319Z,3.65
2023-01-07T09:23:17.239Z,3.60
2023-01-07T09:25:48.908Z,3.25
2023-01-07T09:28:20.635Z,3.42
2023-01-07T09:30:52.431Z,3.53
2023-01-07T09:33:24.583Z,3.03
2023-01-07T09:35:56.423Z,3.47
2023-01-07T09:38:28.218Z,3.47
2023-01-07T09:41:00.027Z,3.47
2023-01-07T09:44:00.946Z,3.50
2023-01-07T09:46:34.829Z,3.20
2023-01-07T09:49:17.476Z,3.88
2023-01-07T09:51:56.467Z,3.20
2023-01-07T09:54:32.672Z,3.83
2023-01-07T09:57:04.694Z,3.70
2023-01-07T09:59:36.373Z,3.28
2023-01-07T10:02:26.040Z,5.40
2023-01-07T10:05:16.626Z,3.40
2023-01-07T10:08:31.133Z,3.67
2023-01-07T10:11:29.744Z,3.50
2023-01-07T10:14:30.713Z,4.38
2023-01-07T10:17:25.873Z,3.90
2023-01-07T10:20:16.558Z,4.18
2023-01-07T10:22:51.552Z,4.10
2023-01-07T10:25:28.676Z,4.07
2023-01-07T10:28:06.363Z,3.95
2023-01-07T10:30:44.178Z,4.30
2023-01-07T10:33:29.569Z,5.13
2023-01-07T10:36:07.181Z,4.90
2023-01-07T10:38:42.336Z,5.03
2023-01-07T10:41:23.786Z,5.30
2023-01-07T10:44:04.182Z,5.05
2023-01-07T10:46:59.973Z,5.53
2023-01-07T10:50:07.529Z,4.53
2023-01-07T10:53:01.339Z,4.75
2023-01-07T10:55:51.769Z,4.13
2023-01-07T10:58:24.475Z,4.68
2023-01-07T11:00:56.857Z,5.00
2023-01-07T11:03:29.077Z,4.30
2023-01-07T11:06:07.345Z,4.10
2023-01-07T11:08:42.314Z,3.97
2023-01-07T11:11:19.461Z,4.20
2023-01-07T11:14:04.575Z,3.03
2023-01-07T11:19:12.383Z,1.77
2023-01-07T11:21:46.410Z,1.67
2023-01-07T11:24:24.322Z,1.83
2023-01-07T11:27:05.351Z,1.70
2023-01-07T11:29:42.798Z,1.40
2023-01-07T11:32:40.612Z,1.52
2023-01-07T11:35:15.317Z,1.38
2023-01-07T11:40:31.956Z,1.85
2023-01-07T11:43:21.759Z,1.42
2023-01-07T11:46:19.418Z,1.70
2023-01-07T11:49:00.698Z,2.00
2023-01-07T11:51:40.616Z,1.70
2023-01-07T11:54:26.686Z,2.30
2023-01-07T11:57:21.147Z,2.03
2023-01-07T12:00:13.568Z,1.60
2023-01-07T12:02:45.586Z,3.22
2023-01-07T12:05:22.718Z,1.42
2023-01-07T12:07:56.839Z,1.55
2023-01-07T12:10:32.905Z,1.38
2023-01-07T12:13:16.732Z,1.42
2023-01-07T12:15:58.741Z,1.48
2023-01-07T12:18:36.168Z,1.60
2023-01-07T12:21:30.827Z,1.40
2023-01-07T12:24:11.681Z,1.77
2023-01-07T12:26:55.741Z,1.75
2023-01-07T12:29:47.657Z,1.70
2023-01-07T12:32:40.757Z,1.40
2023-01-07T12:35:25.292Z,1.30
2023-01-07T12:38:02.338Z,1.30
2023-01-07T12:40:43.203Z,1.60
2023-01-07T12:43:39.975Z,1.10
2023-01-07T12:46:15.018Z,1.60
2023-01-07T12:49:07.985Z,1.10
2023-01-07T12:51:51.642Z,1.30
2023-01-07T12:54:51.151Z,1.27
2023-01-07T12:57:29.117Z,1.13
2023-01-07T13:00:21.299Z,1.42
2023-01-07T13:03:09.719Z,1.13
2023-01-07T13:06:05.565Z,1.08
2023-01-07T13:09:01.519Z,1.20
2023-01-07T13:12:04.033Z,1.10
2023-01-07T13:14:45.318Z,1.10
2023-01-07T13:17:28.750Z,1.20
2023-01-07T13:20:01.637Z,1.40
2023-01-07T13:22:50.877Z,1.30
2023-01-07T13:25:43.684Z,1.02
2023-01-07T13:28:31.091Z,1.25
2023-01-07T13:31:11.912Z,1.20
2023-01-07T13:34:12.952Z,1.13
2023-01-07T13:36:47.726Z,1.20
2023-01-07T13:39:48.262Z,1.30
2023-01-07T13:42:39.719Z,1.35
2023-01-07T13:45:16.165Z,1.13
2023-01-07T13:48:16.643Z,1.48
2023-01-07T13:51:01.556Z,1.38
2023-01-07T13:53:46.269Z,1.40
2023-01-07T13:56:18.201Z,1.58
2023-01-07T13:58:53.234Z,2.30
2023-01-07T14:01:33.509Z,1.77
2023-01-07T14:04:06.882Z,2.30
2023-01-07T14:06:50.818Z,1.65
2023-01-07T14:09:31.804Z,1.77
2023-01-07T14:12:19.851Z,2.05
2023-01-07T14:15:03.564Z,1.95
2023-01-07T14:18:14.809Z,1.88
2023-01-07T14:21:11.885Z,2.30
2023-01-07T14:24:12.867Z,2.22
2023-01-07T14:26:47.344Z,2.10
2023-01-07T14:29:33.625Z,1.90
2023-01-07T14:32:28.558Z,2.08
2023-01-07T14:35:12.176Z,2.20
2023-01-07T14:37:48.452Z,2.10
2023-01-07T14:40:26.100Z,2.28
2023-01-07T14:43:02.497Z,2.53
2023-01-07T14:45:36.981Z,2.75
2023-01-07T14:48:08.690Z,2.40
2023-01-07T14:50:49.417Z,2.70
2023-01-07T14:53:45.257Z,3.00
2023-01-07T14:56:44.024Z,2.80
2023-01-07T14:59:25.608Z,2.40
2023-01-07T15:02:54.888Z,3.17
2023-01-07T15:05:57.840Z,3.20
2023-01-07T15:09:04.060Z,3.05
2023-01-07T15:11:57.132Z,2.97
2023-01-07T15:14:53.945Z,3.65
2023-01-07T15:17:25.754Z,2.60
2023-01-07T15:19:58.649Z,2.92
2023-01-07T15:22:58.092Z,2.60
2023-01-07T15:25:39.420Z,2.42
2023-01-07T15:28:47.344Z,2.67
2023-01-07T15:31:39.281Z,2.60
2023-01-07T15:34:15.742Z,3.03
2023-01-07T15:36:50.829Z,2.58
2023-01-07T15:39:24.677Z,2.80
2023-01-07T15:41:57.541Z,2.75
2023-01-07T15:44:41.398Z,2.80
2023-01-07T15:47:41.850Z,2.60
2023-01-07T15:50:25.622Z,3.33
2023-01-07T15:53:04.034Z,2.50
2023-01-07T15:55:37.897Z,3.00
2023-01-07T15:58:35.126Z,2.93
2023-01-07T16:01:14.050Z,2.65
2023-01-07T16:03:49.636Z,3.70
2023-01-07T16:06:33.005Z,4.47
2023-01-07T16:09:22.011Z,4.00
2023-01-07T16:11:53.747Z,3.92
2023-01-07T16:14:27.036Z,4.85
2023-01-07T16:17:15.577Z,4.10
2023-01-07T16:19:47.250Z,4.45
2023-01-07T16:22:21.942Z,4.75
2023-01-07T16:27:31.841Z,5.72
2023-01-07T16:30:05.539Z,5.55
2023-01-07T16:32:38.150Z,5.95
2023-01-07T16:35:20.668Z,5.53
2023-01-07T16:37:53.845Z,6.47
2023-01-07T16:40:37.027Z,6.32
2023-01-07T16:43:38.775Z,6.53
2023-01-07T16:46:20.030Z,6.65
2023-01-07T16:49:19.578Z,7.00
2023-01-07T16:52:05.209Z,6.82
2023-01-07T16:54:40.365Z,6.93
2023-01-07T16:57:12.046Z,8.05
2023-01-07T16:59:53.801Z,7.82
2023-01-07T17:02:42.831Z,8.75
2023-01-07T17:05:21.023Z,8.25
2023-01-07T17:07:56.799Z,8.18
2023-01-07T17:10:32.339Z,9.10
2023-01-07T17:13:14.740Z,8.07
2023-01-07T17:15:46.461Z,8.10
2023-01-07T17:18:18.095Z,7.68
2023-01-07T17:21:00.531Z,7.75
2023-01-07T17:23:39.823Z,8.55
2023-01-07T17:26:20.510Z,8.07
2023-01-07T17:28:55.005Z,6.82
2023-01-07T17:31:27.999Z,7.97
2023-01-07T17:33:59.870Z,7.05
2023-01-07T17:36:31.574Z,7.07
2023-01-07T17:39:03.641Z,7.00
2023-01-07T17:41:56.253Z,7.63
2023-01-07T17:44:28.000Z,7.35
2023-01-07T17:46:59.923Z,7.28
2023-01-07T17:49:31.649Z,8.30
2023-01-07T17:52:03.399Z,7.55
2023-01-07T17:54:36.110Z,8.02
2023-01-07T17:57:11.193Z,7.65
2023-01-07T17:59:47.274Z,7.93
2023-01-07T18:02:29.676Z,9.20
2023-01-07T18:05:01.402Z,12.77
2023-01-07T18:07:33.069Z,9.05
2023-01-07T18:10:05.060Z,9.93
2023-01-07T18:12:36.814Z,9.23
2023-01-07T18:15:21.781Z,9.95
2023-01-07T18:17:53.653Z,9.40
2023-01-07T18:20:25.317Z,9.27
2023-01-07T18:22:57.027Z,9.20
2023-01-07T18:25:29.171Z,9.45
2023-01-07T18:28:00.866Z,9.85
2023-01-07T18:30:32.983Z,9.35
2023-01-07T18:33:10.769Z,9.40
2023-01-07T18:35:42.517Z,9.15
2023-01-07T18:38:15.902Z,10.63
2023-01-07T18:40:47.767Z,10.52
2023-01-07T18:43:19.488Z,11.23
2023-01-07T18:45:52.029Z,10.68
2023-01-07T18:48:23.816Z,10.75
2023-01-07T18:50:56.632Z,10.52
2023-01-07T18:53:28.404Z,10.05
2023-01-07T18:56:02.024Z,9.35
2023-01-07T18:58:34.137Z,9.82
2023-01-07T19:01:07.298Z,9.23
2023-01-07T19:03:39.144Z,9.80
2023-01-07T19:06:11.448Z,9.57
2023-01-07T19:08:43.299Z,9.10
2023-01-07T19:11:17.057Z,8.43
2023-01-07T19:13:51.924Z,7.80
2023-01-07T19:16:23.679Z,9.50
2023-01-07T19:18:55.444Z,10.13
2023-01-07T19:21:28.651Z,9.13
2023-01-07T19:24:03.779Z,11.45
2023-01-07T19:26:35.556Z,10.10
2023-01-07T19:29:07.263Z,9.85
2023-01-07T19:31:39.448Z,9.73
2023-01-07T19:34:12.929Z,11.25
2023-01-07T19:36:47.424Z,10.32
2023-01-07T19:39:22.235Z,11.35
2023-01-07T19:44:25.738Z,10.00
2023-01-07T19:46:57.399Z,11.00
2023-01-07T19:49:29.953Z,11.20
2023-01-07T19:52:01.695Z,11.75
2023-01-07T19:54:34.338Z,10.45
2023-01-07T19:57:06.008Z,10.57
2023-01-07T19:59:37.703Z,10.80
2023-01-07T20:02:10.839Z,10.50
2023-01-07T20:04:43.128Z,9.85
2023-01-07T20:07:14.874Z,9.25
2023-01-07T20:09:46.707Z,8.77
2023-01-07T20:12:19.629Z,9.25
2023-01-07T20:14:51.565Z,8.43
2023-01-07T20:17:23.419Z,8.02
2023-01-07T20:19:55.231Z,7.72
2023-01-07T20:22:27.035Z,9.20
2023-01-07T20:24:58.820Z,9.20
2023-01-07T20:27:30.580Z,9.85
2023-01-07T20:30:02.307Z,8.80
2023-01-07T20:32:34.623Z,10.35
2023-01-07T20:35:08.154Z,9.77
2023-01-07T20:37:39.844Z,9.38
2023-01-07T20:40:12.102Z,9.73
2023-01-07T20:42:43.766Z,11.10
2023-01-07T20:45:15.554Z,10.40
2023-01-07T20:47:53.275Z,11.15
2023-01-07T20:50:26.144Z,10.57
2023-01-07T20:52:57.862Z,10.98
2023-01-07T20:55:29.626Z,10.35
2023-01-07T20:58:01.518Z,15.50
2023-01-07T21:00:33.896Z,16.83
2023-01-07T21:03:06.693Z,12.10
2023-01-07T21:05:38.531Z,11.10
2023-01-07T21:08:10.287Z,11.52
2023-01-07T21:10:43.220Z,10.88
2023-01-07T21:13:14.880Z,11.07
2023-01-07T21:15:46.695Z,11.70
2023-01-07T21:18:18.741Z,13.90
2023-01-07T21:20:50.470Z,13.52
2023-01-07T21:23:22.180Z,13.45
2023-01-07T21:25:54.208Z,11.90
2023-01-07T21:28:26.023Z,11.35
2023-01-07T21:31:03.041Z,12.20
2023-01-07T21:33:36.135Z,12.57
2023-01-07T21:36:14.608Z,13.73
2023-01-07T21:38:47.059Z,11.93
2023-01-07T21:41:18.766Z,11.73
2023-01-07T21:43:50.846Z,12.73
2023-01-07T21:46:22.747Z,11.30
2023-01-07T21:48:54.827Z,12.02
2023-01-07T21:51:27.820Z,10.50
2023-01-07T21:53:59.695Z,12.73
2023-01-07T21:56:32.844Z,13.40
2023-01-07T21:59:04.682Z,11.95
2023-01-07T22:01:36.909Z,14.25
2023-01-07T22:04:08.824Z,15.43
2023-01-07T22:06:40.604Z,16.38
2023-01-07T22:09:15.315Z,16.55
2023-01-07T22:11:47.258Z,17.17
2023-01-07T22:14:20.412Z,16.05
2023-01-07T22:16:52.168Z,15.90
2023-01-07T22:19:25.913Z,14.52
2023-01-07T22:21:57.772Z,15.13
2023-01-07T22:24:29.482Z,14.98
2023-01-07T22:27:01.458Z,14.93
2023-01-07T22:29:33.580Z,14.93
2023-01-07T22:32:05.505Z,14.40
2023-01-07T22:34:37.252Z,14.57
2023-01-07T22:37:17.924Z,13.68
2023-01-07T22:39:56.993Z,14.00
2023-01-07T22:42:32.780Z,12.85
2023-01-07T22:45:11.072Z,13.18
2023-01-07T22:47:48.580Z,13.57
2023-01-07T22:50:23.045Z,14.00
2023-01-07T22:52:55.007Z,15.85
2023-01-07T22:55:26.800Z,13.68
2023-01-07T22:57:59.934Z,13.07
2023-01-07T23:00:45.910Z,12.85
2023-01-07T23:03:22.457Z,11.55
2023-01-07T23:05:54.153Z,12.80
2023-01-07T23:08:25.875Z,13.30
2023-01-07T23:10:57.631Z,13.07
2023-01-07T23:13:29.542Z,13.88
2023-01-07T23:16:03.032Z,13.30
2023-01-07T23:18:35.018Z,13.45
2023-01-07T23:21:09.523Z,13.70
2023-01-07T23:23:41.209Z,13.05
2023-01-07T23:26:14.042Z,12.25
2023-01-07T23:28:48.542Z,12.50
2023-01-07T23:31:20.322Z,13.55
2023-01-07T23:33:52.031Z,11.65
2023-01-07T23:36:23.695Z,11.02
2023-01-07T23:38:56.501Z,9.85
2023-01-07T23:41:28.154Z,11.52
2023-01-07T23:43:59.813Z,10.43
2023-01-07T23:46:33.303Z,10.32
2023-01-07T23:49:05.065Z,11.30
2023-01-07T23:51:36.817Z,10.07
2023-01-07T23:54:08.600Z,10.45
2023-01-07T23:56:40.291Z,10.32
2023-01-07T23:59:12.862Z,10.85
